Hébergeur de fichiers indépendant

Espagne2016.gpx

À propos du fichier

Type de fichier
Fichier GPX de 1.6 Mo (application/xml)
Confidentialité
Fichier public, envoyé le 28 juillet 2016 à 21:59, depuis l'adresse IP 78.227.x.x (France)
Sécurité
Ne contient aucun Virus ou Malware connus - Dernière vérification: 29/09/23
Statistiques
La présente page de téléchargement a été vue 945 fois depuis l'envoi du fichier
Page de téléchargement

Aperçu du fichier


<?xml version="1.0" encoding="UTF-8"?>
<gpx xmlns="http://www.topografix.com/GPX/1/1" xmlns:gpsies="http://www.gpsies.com/GPX/1/0" creator="GPSies http://www.gpsies.com - Espagne 2016" version="1.1" xmlns:xsi="http://www.w3.org/2001/XMLSchema-instance" xsi:schemaLocation="http://www.topografix.com/GPX/1/1 http://www.topografix.com/GPX/1/1/gpx.xsd http://www.gpsies.com/GPX/1/0 http://www.gpsies.com/gpsies.xsd">
  <metadata>
    <name>Espagne 2016</name>
    <author>
      <name>Hautlepied</name>
      <link href="http://www.gpsies.com/mapUser.do?username=Hautlepied">
        <text>Hautlepied on GPSies.com</text>
        <type>GPSiesUserOnWeb</type>
      </link>
    </author>
    <link href="http://www.gpsies.com/map.do?fileId=hlubpvfhnlgjqkli">
      <text>Espagne 2016 on GPSies.com</text>
      <type>trackOnWeb</type>
    </link>
    <time>2016-07-17T01:04:00Z</time>
    <extensions>
      <gpsies:property>one-way trip</gpsies:property>
      <gpsies:trackLengthMeter>1246303.356424809</gpsies:trackLengthMeter>
      <gpsies:totalAscentMeter>14823.0</gpsies:totalAscentMeter>
      <gpsies:totalDescentMeter>13247.0</gpsies:totalDescentMeter>
      <gpsies:minHeightMeter>1.0</gpsies:minHeightMeter>
      <gpsies:maxHeightMeter>1579.0</gpsies:maxHeightMeter>
    </extensions>
  </metadata>
  <trk>
    <name>Espagne 2016 on GPSies.com</name>
    <link href="http://www.gpsies.com/map.do?fileId=hlubpvfhnlgjqkli">
      <type>trackOnWeb</type>
    </link>
    <link href="http://www.gpsies.com/charts/hl/map/hlubpvfhnlgjqkli_map.png">
      <type>elevationChartUrlMap</type>
    </link>
    <link href="http://www.gpsies.com/charts/hl/mapThumb/hlubpvfhnlgjqkli_mapThumb.png">
      <type>elevationChartUrlMapThumb</type>
    </link>
    <link href="http://www.gpsies.com/charts/hl/tab/hlubpvfhnlgjqkli_tab.png">
      <type>elevationChartUrlTab</type>
    </link>
    <trkseg>
      <trkpt lat="37.21425040" lon="-7.40990281">
        <ele>3.0000000</ele>
        <time>2010-01-01T00:00:00Z</time>
      </trkpt>
      <trkpt lat="37.21425000" lon="-7.40992000">
        <ele>3.0000000</ele>
        <time>2010-01-01T00:00:00Z</time>
      </trkpt>
      <trkpt lat="37.21641000" lon="-7.40974000">
        <ele>7.0000000</ele>
        <time>2010-01-01T00:01:27Z</time>
      </trkpt>
      <trkpt lat="37.21663000" lon="-7.40974000">
        <ele>6.0000000</ele>
        <time>2010-01-01T00:01:36Z</time>
      </trkpt>
      <trkpt lat="37.21671000" lon="-7.40971000">
        <ele>6.0000000</ele>
        <time>2010-01-01T00:01:39Z</time>
      </trkpt>
      <trkpt lat="37.21769000" lon="-7.40849000">
        <ele>7.0000000</ele>
        <time>2010-01-01T00:02:34Z</time>
      </trkpt>
      <trkpt lat="37.21780000" lon="-7.40827000">
        <ele>7.0000000</ele>
        <time>2010-01-01T00:02:42Z</time>
      </trkpt>
      <trkpt lat="37.21794000" lon="-7.40791000">
        <ele>6.0000000</ele>
        <time>2010-01-01T00:02:55Z</time>
      </trkpt>
      <trkpt lat="37.21816000" lon="-7.40756000">
        <ele>6.0000000</ele>
        <time>2010-01-01T00:03:09Z</time>
      </trkpt>
      <trkpt lat="37.21877000" lon="-7.40755000">
        <ele>7.0000000</ele>
        <time>2010-01-01T00:03:34Z</time>
      </trkpt>
      <trkpt lat="37.21878000" lon="-7.40715000">
        <ele>9.0000000</ele>
        <time>2010-01-01T00:03:47Z</time>
      </trkpt>
      <trkpt lat="37.21921000" lon="-7.40720000">
        <ele>10.000000</ele>
        <time>2010-01-01T00:04:04Z</time>
      </trkpt>
      <trkpt lat="37.21959000" lon="-7.40719000">
        <ele>8.0000000</ele>
        <time>2010-01-01T00:04:19Z</time>
      </trkpt>
      <trkpt lat="37.21984000" lon="-7.40722000">
        <ele>9.0000000</ele>
        <time>2010-01-01T00:04:29Z</time>
      </trkpt>
      <trkpt lat="37.22008000" lon="-7.40732000">
        <ele>10.000000</ele>
        <time>2010-01-01T00:04:39Z</time>
      </trkpt>
      <trkpt lat="37.22022000" lon="-7.40740000">
        <ele>11.000000</ele>
        <time>2010-01-01T00:04:45Z</time>
      </trkpt>
      <trkpt lat="37.22025000" lon="-7.40719000">
        <ele>13.000000</ele>
        <time>2010-01-01T00:04:52Z</time>
      </trkpt>
      <trkpt lat="37.22049000" lon="-7.40724000">
        <ele>12.000000</ele>
        <time>2010-01-01T00:05:02Z</time>
      </trkpt>
      <trkpt lat="37.22087000" lon="-7.40709000">
        <ele>13.000000</ele>
        <time>2010-01-01T00:05:18Z</time>
      </trkpt>
      <trkpt lat="37.22105000" lon="-7.40693000">
        <ele>14.000000</ele>
        <time>2010-01-01T00:05:27Z</time>
      </trkpt>
      <trkpt lat="37.22154000" lon="-7.40655000">
        <ele>20.000000</ele>
        <time>2010-01-01T00:05:50Z</time>
      </trkpt>
      <trkpt lat="37.22206000" lon="-7.40623000">
        <ele>26.000000</ele>
        <time>2010-01-01T00:06:13Z</time>
      </trkpt>
      <trkpt lat="37.22307000" lon="-7.40547000">
        <ele>33.000000</ele>
        <time>2010-01-01T00:07:00Z</time>
      </trkpt>
      <trkpt lat="37.22326000" lon="-7.40524000">
        <ele>36.000000</ele>
        <time>2010-01-01T00:07:11Z</time>
      </trkpt>
      <trkpt lat="37.22405000" lon="-7.40456000">
        <ele>41.000000</ele>
        <time>2010-01-01T00:07:49Z</time>
      </trkpt>
      <trkpt lat="37.22470000" lon="-7.40403000">
        <ele>45.000000</ele>
        <time>2010-01-01T00:08:20Z</time>
      </trkpt>
      <trkpt lat="37.22490000" lon="-7.40396000">
        <ele>47.000000</ele>
        <time>2010-01-01T00:08:28Z</time>
      </trkpt>
      <trkpt lat="37.22489000" lon="-7.40396000">
        <ele>47.000000</ele>
        <time>2010-01-01T00:08:29Z</time>
      </trkpt>
      <trkpt lat="37.22560000" lon="-7.40372000">
        <ele>51.000000</ele>
        <time>2010-01-01T00:08:58Z</time>
      </trkpt>
      <trkpt lat="37.22570000" lon="-7.40364000">
        <ele>52.000000</ele>
        <time>2010-01-01T00:09:03Z</time>
      </trkpt>
      <trkpt lat="37.22570000" lon="-7.40357000">
        <ele>52.000000</ele>
        <time>2010-01-01T00:09:05Z</time>
      </trkpt>
      <trkpt lat="37.22572000" lon="-7.40350000">
        <ele>52.000000</ele>
        <time>2010-01-01T00:09:07Z</time>
      </trkpt>
      <trkpt lat="37.22576000" lon="-7.40345000">
        <ele>53.000000</ele>
        <time>2010-01-01T00:09:10Z</time>
      </trkpt>
      <trkpt lat="37.22581000" lon="-7.40341000">
        <ele>53.000000</ele>
        <time>2010-01-01T00:09:12Z</time>
      </trkpt>
      <trkpt lat="37.22617000" lon="-7.40341000">
        <ele>52.000000</ele>
        <time>2010-01-01T00:09:27Z</time>
      </trkpt>
      <trkpt lat="37.22631000" lon="-7.40339000">
        <ele>51.000000</ele>
        <time>2010-01-01T00:09:32Z</time>
      </trkpt>
      <trkpt lat="37.22681000" lon="-7.40302000">
        <ele>44.000000</ele>
        <time>2010-01-01T00:09:55Z</time>
      </trkpt>
      <trkpt lat="37.22716000" lon="-7.40266000">
        <ele>43.000000</ele>
        <time>2010-01-01T00:10:13Z</time>
      </trkpt>
      <trkpt lat="37.22790000" lon="-7.40167000">
        <ele>36.000000</ele>
        <time>2010-01-01T00:10:57Z</time>
      </trkpt>
      <trkpt lat="37.22812000" lon="-7.40143000">
        <ele>36.000000</ele>
        <time>2010-01-01T00:11:08Z</time>
      </trkpt>
      <trkpt lat="37.22833000" lon="-7.40124000">
        <ele>38.000000</ele>
        <time>2010-01-01T00:11:19Z</time>
      </trkpt>
      <trkpt lat="37.22876000" lon="-7.40096000">
        <ele>35.000000</ele>
        <time>2010-01-01T00:11:38Z</time>
      </trkpt>
      <trkpt lat="37.22921000" lon="-7.40082000">
        <ele>30.000000</ele>
        <time>2010-01-01T00:11:57Z</time>
      </trkpt>
      <trkpt lat="37.22942000" lon="-7.40081000">
        <ele>26.000000</ele>
        <time>2010-01-01T00:12:05Z</time>
      </trkpt>
      <trkpt lat="37.22985000" lon="-7.40083000">
        <ele>22.000000</ele>
        <time>2010-01-01T00:12:22Z</time>
      </trkpt>
      <trkpt lat="37.23029000" lon="-7.40036000">
        <ele>25.000000</ele>
        <time>2010-01-01T00:12:46Z</time>
      </trkpt>
      <trkpt lat="37.23047000" lon="-7.40010000">
        <ele>26.000000</ele>
        <time>2010-01-01T00:12:56Z</time>
      </trkpt>
      <trkpt lat="37.23055000" lon="-7.39991000">
        <ele>26.000000</ele>
        <time>2010-01-01T00:13:03Z</time>
      </trkpt>
      <trkpt lat="37.23062000" lon="-7.39948000">
        <ele>24.000000</ele>
        <time>2010-01-01T00:13:17Z</time>
      </trkpt>
      <trkpt lat="37.23071000" lon="-7.39834000">
        <ele>16.000000</ele>
        <time>2010-01-01T00:13:54Z</time>
      </trkpt>
      <trkpt lat="37.23075000" lon="-7.39805000">
        <ele>14.000000</ele>
        <time>2010-01-01T00:14:03Z</time>
      </trkpt>
      <trkpt lat="37.23049000" lon="-7.39791000">
        <ele>18.000000</ele>
        <time>2010-01-01T00:14:15Z</time>
      </trkpt>
      <trkpt lat="37.23038000" lon="-7.39776000">
        <ele>19.000000</ele>
        <time>2010-01-01T00:14:21Z</time>
      </trkpt>
      <trkpt lat="37.23039000" lon="-7.39756000">
        <ele>20.000000</ele>
        <time>2010-01-01T00:14:27Z</time>
      </trkpt>
      <trkpt lat="37.23131000" lon="-7.39489000">
        <ele>15.000000</ele>
        <time>2010-01-01T00:16:00Z</time>
      </trkpt>
      <trkpt lat="37.23212000" lon="-7.39268000">
        <ele>12.000000</ele>
        <time>2010-01-01T00:17:18Z</time>
      </trkpt>
      <trkpt lat="37.23414000" lon="-7.38834000">
        <ele>12.000000</ele>
        <time>2010-01-01T00:19:58Z</time>
      </trkpt>
      <trkpt lat="37.23413000" lon="-7.38834000">
        <ele>12.000000</ele>
        <time>2010-01-01T00:19:58Z</time>
      </trkpt>
      <trkpt lat="37.23487000" lon="-7.38679000">
        <ele>7.0000000</ele>
        <time>2010-01-01T00:20:56Z</time>
      </trkpt>
      <trkpt lat="37.23537000" lon="-7.38596000">
        <ele>10.000000</ele>
        <time>2010-01-01T00:21:29Z</time>
      </trkpt>
      <trkpt lat="37.23532000" lon="-7.38590000">
        <ele>10.000000</ele>
        <time>2010-01-01T00:21:32Z</time>
      </trkpt>
      <trkpt lat="37.23530000" lon="-7.38582000">
        <ele>10.000000</ele>
        <time>2010-01-01T00:21:35Z</time>
      </trkpt>
      <trkpt lat="37.23529000" lon="-7.38574000">
        <ele>11.000000</ele>
        <time>2010-01-01T00:21:37Z</time>
      </trkpt>
      <trkpt lat="37.23531000" lon="-7.38566000">
        <ele>11.000000</ele>
        <time>2010-01-01T00:21:40Z</time>
      </trkpt>
      <trkpt lat="37.23536000" lon="-7.38559000">
        <ele>11.000000</ele>
        <time>2010-01-01T00:21:43Z</time>
      </trkpt>
      <trkpt lat="37.23541000" lon="-7.38555000">
        <ele>11.000000</ele>
        <time>2010-01-01T00:21:45Z</time>
      </trkpt>
      <trkpt lat="37.23548000" lon="-7.38554000">
        <ele>10.000000</ele>
        <time>2010-01-01T00:21:48Z</time>
      </trkpt>
      <trkpt lat="37.23555000" lon="-7.38556000">
        <ele>10.000000</ele>
        <time>2010-01-01T00:21:51Z</time>
      </trkpt>
      <trkpt lat="37.23651000" lon="-7.38302000">
        <ele>6.0000000</ele>
        <time>2010-01-01T00:23:20Z</time>
      </trkpt>
      <trkpt lat="37.23820000" lon="-7.37996000">
        <ele>8.0000000</ele>
        <time>2010-01-01T00:25:19Z</time>
      </trkpt>
      <trkpt lat="37.23820000" lon="-7.37971000">
        <ele>8.0000000</ele>
        <time>2010-01-01T00:25:27Z</time>
      </trkpt>
      <trkpt lat="37.23793000" lon="-7.37910000">
        <ele>9.0000000</ele>
        <time>2010-01-01T00:25:49Z</time>
      </trkpt>
      <trkpt lat="37.23793000" lon="-7.37889000">
        <ele>10.000000</ele>
        <time>2010-01-01T00:25:56Z</time>
      </trkpt>
      <trkpt lat="37.23797000" lon="-7.37875000">
        <ele>11.000000</ele>
        <time>2010-01-01T00:26:01Z</time>
      </trkpt>
      <trkpt lat="37.23821000" lon="-7.37856000">
        <ele>11.000000</ele>
        <time>2010-01-01T00:26:12Z</time>
      </trkpt>
      <trkpt lat="37.23817000" lon="-7.37839000">
        <ele>12.000000</ele>
        <time>2010-01-01T00:26:18Z</time>
      </trkpt>
      <trkpt lat="37.23823000" lon="-7.37822000">
        <ele>12.000000</ele>
        <time>2010-01-01T00:26:24Z</time>
      </trkpt>
      <trkpt lat="37.23823000" lon="-7.37811000">
        <ele>12.000000</ele>
        <time>2010-01-01T00:26:27Z</time>
      </trkpt>
      <trkpt lat="37.23820000" lon="-7.37796000">
        <ele>12.000000</ele>
        <time>2010-01-01T00:26:32Z</time>
      </trkpt>
      <trkpt lat="37.23801000" lon="-7.37749000">
        <ele>14.000000</ele>
        <time>2010-01-01T00:26:49Z</time>
      </trkpt>
      <trkpt lat="37.23731000" lon="-7.37601000">
        <ele>26.000000</ele>
        <time>2010-01-01T00:27:44Z</time>
      </trkpt>
      <trkpt lat="37.23701000" lon="-7.37521000">
        <ele>32.000000</ele>
        <time>2010-01-01T00:28:12Z</time>
      </trkpt>
      <trkpt lat="37.23678000" lon="-7.37439000">
        <ele>39.000000</ele>
        <time>2010-01-01T00:28:40Z</time>
      </trkpt>
      <trkpt lat="37.23666000" lon="-7.37364000">
        <ele>41.000000</ele>
        <time>2010-01-01T00:29:04Z</time>
      </trkpt>
      <trkpt lat="37.23660000" lon="-7.37286000">
        <ele>48.000000</ele>
        <time>2010-01-01T00:29:29Z</time>
      </trkpt>
      <trkpt lat="37.23662000" lon="-7.37225000">
        <ele>51.000000</ele>
        <time>2010-01-01T00:29:49Z</time>
      </trkpt>
      <trkpt lat="37.23666000" lon="-7.37164000">
        <ele>51.000000</ele>
        <time>2010-01-01T00:30:08Z</time>
      </trkpt>
      <trkpt lat="37.23699000" lon="-7.37024000">
        <ele>55.000000</ele>
        <time>2010-01-01T00:30:55Z</time>
      </trkpt>
      <trkpt lat="37.23833000" lon="-7.36610000">
        <ele>58.000000</ele>
        <time>2010-01-01T00:33:17Z</time>
      </trkpt>
      <trkpt lat="37.23864000" lon="-7.36472000">
        <ele>58.000000</ele>
        <time>2010-01-01T00:34:03Z</time>
      </trkpt>
      <trkpt lat="37.23876000" lon="-7.36357000">
        <ele>59.000000</ele>
        <time>2010-01-01T00:34:40Z</time>
      </trkpt>
      <trkpt lat="37.23877000" lon="-7.36214000">
        <ele>57.000000</ele>
        <time>2010-01-01T00:35:25Z</time>
      </trkpt>
      <trkpt lat="37.23859000" lon="-7.36068000">
        <ele>55.000000</ele>
        <time>2010-01-01T00:36:12Z</time>
      </trkpt>
      <trkpt lat="37.23826000" lon="-7.35944000">
        <ele>54.000000</ele>
        <time>2010-01-01T00:36:54Z</time>
      </trkpt>
      <trkpt lat="37.23765000" lon="-7.35799000">
        <ele>54.000000</ele>
        <time>2010-01-01T00:37:46Z</time>
      </trkpt>
      <trkpt lat="37.23643000" lon="-7.35574000">
        <ele>57.000000</ele>
        <time>2010-01-01T00:39:13Z</time>
      </trkpt>
      <trkpt lat="37.23618000" lon="-7.35517000">
        <ele>56.000000</ele>
        <time>2010-01-01T00:39:34Z</time>
      </trkpt>
      <trkpt lat="37.23596000" lon="-7.35459000">
        <ele>56.000000</ele>
        <time>2010-01-01T00:39:54Z</time>
      </trkpt>
      <trkpt lat="37.23579000" lon="-7.35401000">
        <ele>56.000000</ele>
        <time>2010-01-01T00:40:14Z</time>
      </trkpt>
      <trkpt lat="37.23565000" lon="-7.35289000">
        <ele>53.000000</ele>
        <time>2010-01-01T00:40:50Z</time>
      </trkpt>
      <trkpt lat="37.23563000" lon="-7.35197000">
        <ele>52.000000</ele>
        <time>2010-01-01T00:41:19Z</time>
      </trkpt>
      <trkpt lat="37.23566000" lon="-7.35141000">
        <ele>52.000000</ele>
        <time>2010-01-01T00:41:37Z</time>
      </trkpt>
      <trkpt lat="37.23575000" lon="-7.35083000">
        <ele>53.000000</ele>
        <time>2010-01-01T00:41:56Z</time>
      </trkpt>
      <trkpt lat="37.23594000" lon="-7.35029000">
        <ele>53.000000</ele>
        <time>2010-01-01T00:42:15Z</time>
      </trkpt>
      <trkpt lat="37.23633000" lon="-7.34863000">
        <ele>54.000000</ele>
        <time>2010-01-01T00:43:10Z</time>
      </trkpt>
      <trkpt lat="37.23798000" lon="-7.34228000">
        <ele>53.000000</ele>
        <time>2010-01-01T00:46:43Z</time>
      </trkpt>
      <trkpt lat="37.23882000" lon="-7.33918000">
        <ele>51.000000</ele>
        <time>2010-01-01T00:48:27Z</time>
      </trkpt>
      <trkpt lat="37.24027000" lon="-7.33393000">
        <ele>51.000000</ele>
        <time>2010-01-01T00:51:24Z</time>
      </trkpt>
      <trkpt lat="37.24166000" lon="-7.32872000">
        <ele>52.000000</ele>
        <time>2010-01-01T00:54:19Z</time>
      </trkpt>
      <trkpt lat="37.24351000" lon="-7.32112000">
        <ele>46.000000</ele>
        <time>2010-01-01T00:58:33Z</time>
      </trkpt>
      <trkpt lat="37.24436000" lon="-7.31759000">
        <ele>51.000000</ele>
        <time>2010-01-01T01:00:30Z</time>
      </trkpt>
      <trkpt lat="37.24436000" lon="-7.31760000">
        <ele>51.000000</ele>
        <time>2010-01-01T01:00:31Z</time>
      </trkpt>
      <trkpt lat="37.24471000" lon="-7.31616000">
        <ele>50.000000</ele>
        <time>2010-01-01T01:01:19Z</time>
      </trkpt>
      <trkpt lat="37.24502000" lon="-7.31478000">
        <ele>55.000000</ele>
        <time>2010-01-01T01:02:04Z</time>
      </trkpt>
      <trkpt lat="37.24521000" lon="-7.31333000">
        <ele>50.000000</ele>
        <time>2010-01-01T01:02:51Z</time>
      </trkpt>
      <trkpt lat="37.24549000" lon="-7.31016000">
        <ele>51.000000</ele>
        <time>2010-01-01T01:04:33Z</time>
      </trkpt>
      <trkpt lat="37.24583000" lon="-7.30716000">
        <ele>51.000000</ele>
        <time>2010-01-01T01:06:09Z</time>
      </trkpt>
      <trkpt lat="37.24698000" lon="-7.29621000">
        <ele>39.000000</ele>
        <time>2010-01-01T01:12:01Z</time>
      </trkpt>
      <trkpt lat="37.24752000" lon="-7.29077000">
        <ele>39.000000</ele>
        <time>2010-01-01T01:14:56Z</time>
      </trkpt>
      <trkpt lat="37.24760000" lon="-7.28944000">
        <ele>41.000000</ele>
        <time>2010-01-01T01:15:38Z</time>
      </trkpt>
      <trkpt lat="37.24761000" lon="-7.28799000">
        <ele>39.000000</ele>
        <time>2010-01-01T01:16:25Z</time>
      </trkpt>
      <trkpt lat="37.24754000" lon="-7.28664000">
        <ele>34.000000</ele>
        <time>2010-01-01T01:17:08Z</time>
      </trkpt>
      <trkpt lat="37.24736000" lon="-7.28528000">
        <ele>38.000000</ele>
        <time>2010-01-01T01:17:52Z</time>
      </trkpt>
      <trkpt lat="37.24640000" lon="-7.28005000">
        <ele>31.000000</ele>
        <time>2010-01-01T01:20:43Z</time>
      </trkpt>
      <trkpt lat="37.24579000" lon="-7.27680000">
        <ele>29.000000</ele>
        <time>2010-01-01T01:22:29Z</time>
      </trkpt>
      <trkpt lat="37.24531000" lon="-7.27413000">
        <ele>19.000000</ele>
        <time>2010-01-01T01:23:56Z</time>
      </trkpt>
      <trkpt lat="37.24528000" lon="-7.27351000">
        <ele>16.000000</ele>
        <time>2010-01-01T01:24:16Z</time>
      </trkpt>
      <trkpt lat="37.24532000" lon="-7.27285000">
        <ele>12.000000</ele>
        <time>2010-01-01T01:24:37Z</time>
      </trkpt>
      <trkpt lat="37.24548000" lon="-7.27199000">
        <ele>10.000000</ele>
        <time>2010-01-01T01:25:05Z</time>
      </trkpt>
      <trkpt lat="37.24575000" lon="-7.27111000">
        <ele>9.0000000</ele>
        <time>2010-01-01T01:25:35Z</time>
      </trkpt>
      <trkpt lat="37.24778000" lon="-7.26615000">
        <ele>18.000000</ele>
        <time>2010-01-01T01:28:33Z</time>
      </trkpt>
      <trkpt lat="37.25014000" lon="-7.26051000">
        <ele>31.000000</ele>
        <time>2010-01-01T01:31:56Z</time>
      </trkpt>
      <trkpt lat="37.25050000" lon="-7.25957000">
        <ele>31.000000</ele>
        <time>2010-01-01T01:32:29Z</time>
      </trkpt>
      <trkpt lat="37.25064000" lon="-7.25899000">
        <ele>35.000000</ele>
        <time>2010-01-01T01:32:49Z</time>
      </trkpt>
      <trkpt lat="37.25075000" lon="-7.25812000">
        <ele>34.000000</ele>
        <time>2010-01-01T01:33:17Z</time>
      </trkpt>
      <trkpt lat="37.25223000" lon="-7.24438000">
        <ele>59.000000</ele>
        <time>2010-01-01T01:40:39Z</time>
      </trkpt>
      <trkpt lat="37.25339000" lon="-7.23568000">
        <ele>51.000000</ele>
        <time>2010-01-01T01:45:20Z</time>
      </trkpt>
      <trkpt lat="37.25364000" lon="-7.23386000">
        <ele>45.000000</ele>
        <time>2010-01-01T01:46:19Z</time>
      </trkpt>
      <trkpt lat="37.25362000" lon="-7.23356000">
        <ele>46.000000</ele>
        <time>2010-01-01T01:46:28Z</time>
      </trkpt>
      <trkpt lat="37.25356000" lon="-7.23335000">
        <ele>47.000000</ele>
        <time>2010-01-01T01:46:35Z</time>
      </trkpt>
      <trkpt lat="37.25338000" lon="-7.23313000">
        <ele>48.000000</ele>
        <time>2010-01-01T01:46:45Z</time>
      </trkpt>
      <trkpt lat="37.25331000" lon="-7.23293000">
        <ele>49.000000</ele>
        <time>2010-01-01T01:46:52Z</time>
      </trkpt>
      <trkpt lat="37.25330000" lon="-7.23275000">
        <ele>49.000000</ele>
        <time>2010-01-01T01:46:58Z</time>
      </trkpt>
      <trkpt lat="37.25333000" lon="-7.23261000">
        <ele>49.000000</ele>
        <time>2010-01-01T01:47:03Z</time>
      </trkpt>
      <trkpt lat="37.25343000" lon="-7.23240000">
        <ele>50.000000</ele>
        <time>2010-01-01T01:47:10Z</time>
      </trkpt>
      <trkpt lat="37.25356000" lon="-7.23226000">
        <ele>50.000000</ele>
        <time>2010-01-01T01:47:17Z</time>
      </trkpt>
      <trkpt lat="37.25373000" lon="-7.23220000">
        <ele>51.000000</ele>
        <time>2010-01-01T01:47:24Z</time>
      </trkpt>
      <trkpt lat="37.25386000" lon="-7.23199000">
        <ele>51.000000</ele>
        <time>2010-01-01T01:47:33Z</time>
      </trkpt>
      <trkpt lat="37.25393000" lon="-7.23176000">
        <ele>52.000000</ele>
        <time>2010-01-01T01:47:41Z</time>
      </trkpt>
      <trkpt lat="37.25409000" lon="-7.23068000">
        <ele>51.000000</ele>
        <time>2010-01-01T01:48:16Z</time>
      </trkpt>
      <trkpt lat="37.25442000" lon="-7.22817000">
        <ele>44.000000</ele>
        <time>2010-01-01T01:49:37Z</time>
      </trkpt>
      <trkpt lat="37.25458000" lon="-7.22656000">
        <ele>40.000000</ele>
        <time>2010-01-01T01:50:28Z</time>
      </trkpt>
      <trkpt lat="37.25495000" lon="-7.22418000">
        <ele>36.000000</ele>
        <time>2010-01-01T01:51:46Z</time>
      </trkpt>
      <trkpt lat="37.25504000" lon="-7.22337000">
        <ele>37.000000</ele>
        <time>2010-01-01T01:52:12Z</time>
      </trkpt>
      <trkpt lat="37.25508000" lon="-7.22256000">
        <ele>37.000000</ele>
        <time>2010-01-01T01:52:38Z</time>
      </trkpt>
      <trkpt lat="37.25504000" lon="-7.22176000">
        <ele>35.000000</ele>
        <time>2010-01-01T01:53:03Z</time>
      </trkpt>
      <trkpt lat="37.25484000" lon="-7.22010000">
        <ele>36.000000</ele>
        <time>2010-01-01T01:53:57Z</time>
      </trkpt>
      <trkpt lat="37.25467000" lon="-7.21767000">
        <ele>35.000000</ele>
        <time>2010-01-01T01:55:14Z</time>
      </trkpt>
      <trkpt lat="37.25444000" lon="-7.21632000">
        <ele>33.000000</ele>
        <time>2010-01-01T01:55:58Z</time>
      </trkpt>
      <trkpt lat="37.25427000" lon="-7.21564000">
        <ele>34.000000</ele>
        <time>2010-01-01T01:56:21Z</time>
      </trkpt>
      <trkpt lat="37.25338000" lon="-7.21273000">
        <ele>27.000000</ele>
        <time>2010-01-01T01:58:00Z</time>
      </trkpt>
      <trkpt lat="37.25306000" lon="-7.21156000">
        <ele>18.000000</ele>
        <time>2010-01-01T01:58:40Z</time>
      </trkpt>
      <trkpt lat="37.25297000" lon="-7.21160000">
        <ele>18.000000</ele>
        <time>2010-01-01T01:58:44Z</time>
      </trkpt>
      <trkpt lat="37.25289000" lon="-7.21160000">
        <ele>17.000000</ele>
        <time>2010-01-01T01:58:47Z</time>
      </trkpt>
      <trkpt lat="37.25279000" lon="-7.21157000">
        <ele>16.000000</ele>
        <time>2010-01-01T01:58:51Z</time>
      </trkpt>
      <trkpt lat="37.25270000" lon="-7.21147000">
        <ele>16.000000</ele>
        <time>2010-01-01T01:58:56Z</time>
      </trkpt>
      <trkpt lat="37.25265000" lon="-7.21136000">
        <ele>16.000000</ele>
        <time>2010-01-01T01:59:00Z</time>
      </trkpt>
      <trkpt lat="37.25263000" lon="-7.21123000">
        <ele>16.000000</ele>
        <time>2010-01-01T01:59:04Z</time>
      </trkpt>
      <trkpt lat="37.25265000" lon="-7.21111000">
        <ele>17.000000</ele>
        <time>2010-01-01T01:59:08Z</time>
      </trkpt>
      <trkpt lat="37.25268000" lon="-7.21104000">
        <ele>17.000000</ele>
        <time>2010-01-01T01:59:10Z</time>
      </trkpt>
      <trkpt lat="37.25275000" lon="-7.21095000">
        <ele>17.000000</ele>
        <time>2010-01-01T01:59:14Z</time>
      </trkpt>
      <trkpt lat="37.25289000" lon="-7.21088000">
        <ele>17.000000</ele>
        <time>2010-01-01T01:59:20Z</time>
      </trkpt>
      <trkpt lat="37.25225000" lon="-7.20902000">
        <ele>23.000000</ele>
        <time>2010-01-01T02:00:25Z</time>
      </trkpt>
      <trkpt lat="37.25136000" lon="-7.20607000">
        <ele>15.000000</ele>
        <time>2010-01-01T02:02:06Z</time>
      </trkpt>
      <trkpt lat="37.25042000" lon="-7.20289000">
        <ele>16.000000</ele>
        <time>2010-01-01T02:03:54Z</time>
      </trkpt>
      <trkpt lat="37.25021000" lon="-7.20235000">
        <ele>14.000000</ele>
        <time>2010-01-01T02:04:13Z</time>
      </trkpt>
      <trkpt lat="37.24996000" lon="-7.20139000">
        <ele>15.000000</ele>
        <time>2010-01-01T02:04:45Z</time>
      </trkpt>
      <trkpt lat="37.24990000" lon="-7.20086000">
        <ele>16.000000</ele>
        <time>2010-01-01T02:05:02Z</time>
      </trkpt>
      <trkpt lat="37.24992000" lon="-7.20063000">
        <ele>15.000000</ele>
        <time>2010-01-01T02:05:09Z</time>
      </trkpt>
      <trkpt lat="37.24997000" lon="-7.20029000">
        <ele>14.000000</ele>
        <time>2010-01-01T02:05:20Z</time>
      </trkpt>
      <trkpt lat="37.25005000" lon="-7.19999000">
        <ele>13.000000</ele>
        <time>2010-01-01T02:05:30Z</time>
      </trkpt>
      <trkpt lat="37.25027000" lon="-7.19951000">
        <ele>13.000000</ele>
        <time>2010-01-01T02:05:48Z</time>
      </trkpt>
      <trkpt lat="37.25051000" lon="-7.19919000">
        <ele>13.000000</ele>
        <time>2010-01-01T02:06:02Z</time>
      </trkpt>
      <trkpt lat="37.25078000" lon="-7.19891000">
        <ele>13.000000</ele>
        <time>2010-01-01T02:06:16Z</time>
      </trkpt>
      <trkpt lat="37.25099000" lon="-7.19871000">
        <ele>14.000000</ele>
        <time>2010-01-01T02:06:27Z</time>
      </trkpt>
      <trkpt lat="37.25134000" lon="-7.19842000">
        <ele>12.000000</ele>
        <time>2010-01-01T02:06:43Z</time>
      </trkpt>
      <trkpt lat="37.25266000" lon="-7.19736000">
        <ele>14.000000</ele>
        <time>2010-01-01T02:07:46Z</time>
      </trkpt>
      <trkpt lat="37.25291000" lon="-7.19719000">
        <ele>14.000000</ele>
        <time>2010-01-01T02:07:58Z</time>
      </trkpt>
      <trkpt lat="37.25300000" lon="-7.19704000">
        <ele>14.000000</ele>
        <time>2010-01-01T02:08:04Z</time>
      </trkpt>
      <trkpt lat="37.25310000" lon="-7.19678000">
        <ele>13.000000</ele>
        <time>2010-01-01T02:08:13Z</time>
      </trkpt>
      <trkpt lat="37.25316000" lon="-7.19671000">
        <ele>13.000000</ele>
        <time>2010-01-01T02:08:16Z</time>
      </trkpt>
      <trkpt lat="37.25323000" lon="-7.19668000">
        <ele>13.000000</ele>
        <time>2010-01-01T02:08:19Z</time>
      </trkpt>
      <trkpt lat="37.25330000" lon="-7.19668000">
        <ele>13.000000</ele>
        <time>2010-01-01T02:08:22Z</time>
      </trkpt>
      <trkpt lat="37.25352000" lon="-7.19678000">
        <ele>12.000000</ele>
        <time>2010-01-01T02:08:31Z</time>
      </trkpt>
      <trkpt lat="37.25360000" lon="-7.19678000">
        <ele>12.000000</ele>
        <time>2010-01-01T02:08:34Z</time>
      </trkpt>
      <trkpt lat="37.25415000" lon="-7.19670000">
        <ele>13.000000</ele>
        <time>2010-01-01T02:08:57Z</time>
      </trkpt>
      <trkpt lat="37.25779000" lon="-7.19657000">
        <ele>24.000000</ele>
        <time>2010-01-01T02:11:22Z</time>
      </trkpt>
      <trkpt lat="37.26576000" lon="-7.19616000">
        <ele>34.000000</ele>
        <time>2010-01-01T02:16:42Z</time>
      </trkpt>
      <trkpt lat="37.26639000" lon="-7.19603000">
        <ele>32.000000</ele>
        <time>2010-01-01T02:17:07Z</time>
      </trkpt>
      <trkpt lat="37.26674000" lon="-7.19589000">
        <ele>32.000000</ele>
        <time>2010-01-01T02:17:22Z</time>
      </trkpt>
      <trkpt lat="37.26714000" lon="-7.19561000">
        <ele>33.000000</ele>
        <time>2010-01-01T02:17:40Z</time>
      </trkpt>
      <trkpt lat="37.26755000" lon="-7.19521000">
        <ele>32.000000</ele>
        <time>2010-01-01T02:18:01Z</time>
      </trkpt>
      <trkpt lat="37.26850000" lon="-7.19415000">
        <ele>28.000000</ele>
        <time>2010-01-01T02:18:52Z</time>
      </trkpt>
      <trkpt lat="37.26891000" lon="-7.19372000">
        <ele>29.000000</ele>
        <time>2010-01-01T02:19:13Z</time>
      </trkpt>
      <trkpt lat="37.27203000" lon="-7.19045000">
        <ele>29.000000</ele>
        <time>2010-01-01T02:21:56Z</time>
      </trkpt>
      <trkpt lat="37.27376000" lon="-7.18883000">
        <ele>26.000000</ele>
        <time>2010-01-01T02:23:22Z</time>
      </trkpt>
      <trkpt lat="37.27603000" lon="-7.18681000">
        <ele>17.000000</ele>
        <time>2010-01-01T02:25:14Z</time>
      </trkpt>
      <trkpt lat="37.27602000" lon="-7.18681000">
        <ele>17.000000</ele>
        <time>2010-01-01T02:25:14Z</time>
      </trkpt>
      <trkpt lat="37.27691000" lon="-7.18602000">
        <ele>18.000000</ele>
        <time>2010-01-01T02:25:58Z</time>
      </trkpt>
      <trkpt lat="37.27753000" lon="-7.18561000">
        <ele>16.000000</ele>
        <time>2010-01-01T02:26:26Z</time>
      </trkpt>
      <trkpt lat="37.27951000" lon="-7.18450000">
        <ele>11.000000</ele>
        <time>2010-01-01T02:27:52Z</time>
      </trkpt>
      <trkpt lat="37.28347000" lon="-7.18232000">
        <ele>16.000000</ele>
        <time>2010-01-01T02:30:45Z</time>
      </trkpt>
      <trkpt lat="37.28391000" lon="-7.18198000">
        <ele>17.000000</ele>
        <time>2010-01-01T02:31:06Z</time>
      </trkpt>
      <trkpt lat="37.28429000" lon="-7.18152000">
        <ele>15.000000</ele>
        <time>2010-01-01T02:31:27Z</time>
      </trkpt>
      <trkpt lat="37.28459000" lon="-7.18099000">
        <ele>14.000000</ele>
        <time>2010-01-01T02:31:48Z</time>
      </trkpt>
      <trkpt lat="37.28480000" lon="-7.18027000">
        <ele>13.000000</ele>
        <time>2010-01-01T02:32:12Z</time>
      </trkpt>
      <trkpt lat="37.28490000" lon="-7.17965000">
        <ele>13.000000</ele>
        <time>2010-01-01T02:32:33Z</time>
      </trkpt>
      <trkpt lat="37.28490000" lon="-7.17901000">
        <ele>11.000000</ele>
        <time>2010-01-01T02:32:53Z</time>
      </trkpt>
      <trkpt lat="37.28456000" lon="-7.17748000">
        <ele>4.0000000</ele>
        <time>2010-01-01T02:33:44Z</time>
      </trkpt>
      <trkpt lat="37.28411000" lon="-7.17583000">
        <ele>2.0000000</ele>
        <time>2010-01-01T02:34:39Z</time>
      </trkpt>
      <trkpt lat="37.28397000" lon="-7.17520000">
        <ele>3.0000000</ele>
        <time>2010-01-01T02:35:00Z</time>
      </trkpt>
      <trkpt lat="37.28401000" lon="-7.17458000">
        <ele>5.0000000</ele>
        <time>2010-01-01T02:35:20Z</time>
      </trkpt>
      <trkpt lat="37.28411000" lon="-7.17413000">
        <ele>4.0000000</ele>
        <time>2010-01-01T02:35:35Z</time>
      </trkpt>
      <trkpt lat="37.28475000" lon="-7.17266000">
        <ele>7.0000000</ele>
        <time>2010-01-01T02:36:28Z</time>
      </trkpt>
      <trkpt lat="37.28470000" lon="-7.17262000">
        <ele>7.0000000</ele>
        <time>2010-01-01T02:36:30Z</time>
      </trkpt>
      <trkpt lat="37.28465000" lon="-7.17254000">
        <ele>7.0000000</ele>
        <time>2010-01-01T02:36:34Z</time>
      </trkpt>
      <trkpt lat="37.28464000" lon="-7.17246000">
        <ele>7.0000000</ele>
        <time>2010-01-01T02:36:36Z</time>
      </trkpt>
      <trkpt lat="37.28466000" lon="-7.17237000">
        <ele>7.0000000</ele>
        <time>2010-01-01T02:36:39Z</time>
      </trkpt>
      <trkpt lat="37.28469000" lon="-7.17231000">
        <ele>7.0000000</ele>
        <time>2010-01-01T02:36:41Z</time>
      </trkpt>
      <trkpt lat="37.28476000" lon="-7.17226000">
        <ele>8.0000000</ele>
        <time>2010-01-01T02:36:45Z</time>
      </trkpt>
      <trkpt lat="37.28482000" lon="-7.17224000">
        <ele>8.0000000</ele>
        <time>2010-01-01T02:36:47Z</time>
      </trkpt>
      <trkpt lat="37.28490000" lon="-7.17226000">
        <ele>8.0000000</ele>
        <time>2010-01-01T02:36:50Z</time>
      </trkpt>
      <trkpt lat="37.28620000" lon="-7.16950000">
        <ele>12.000000</ele>
        <time>2010-01-01T02:38:33Z</time>
      </trkpt>
      <trkpt lat="37.28722000" lon="-7.16719000">
        <ele>15.000000</ele>
        <time>2010-01-01T02:39:57Z</time>
      </trkpt>
      <trkpt lat="37.28713000" lon="-7.16710000">
        <ele>15.000000</ele>
        <time>2010-01-01T02:40:01Z</time>
      </trkpt>
      <trkpt lat="37.28712000" lon="-7.16698000">
        <ele>15.000000</ele>
        <time>2010-01-01T02:40:05Z</time>
      </trkpt>
      <trkpt lat="37.28717000" lon="-7.16687000">
        <ele>16.000000</ele>
        <time>2010-01-01T02:40:09Z</time>
      </trkpt>
      <trkpt lat="37.28726000" lon="-7.16683000">
        <ele>16.000000</ele>
        <time>2010-01-01T02:40:13Z</time>
      </trkpt>
      <trkpt lat="37.28733000" lon="-7.16685000">
        <ele>16.000000</ele>
        <time>2010-01-01T02:40:16Z</time>
      </trkpt>
      <trkpt lat="37.28740000" lon="-7.16661000">
        <ele>16.000000</ele>
        <time>2010-01-01T02:40:24Z</time>
      </trkpt>


Partager le fichier Espagne2016.gpx sur le Web et les réseaux sociaux:


Télécharger le fichier Espagne2016.gpx


Télécharger Espagne2016.gpx